createdAt,value
2018-05-23T00:00:28.677Z,50.90
2018-05-23T00:03:31.293Z,50.75
2018-05-23T00:06:33.920Z,50.56
2018-05-23T00:09:43.439Z,50.84
2018-05-23T00:12:53.231Z,50.71
2018-05-23T00:15:55.842Z,50.62
2018-05-23T00:18:58.362Z,50.17
2018-05-23T00:22:01.001Z,50.31
2018-05-23T00:25:03.534Z,50.66
2018-05-23T00:28:06.108Z,50.41
2018-05-23T00:31:08.659Z,50.46
2018-05-23T00:34:11.235Z,50.80
2018-05-23T00:37:13.760Z,51.31
2018-05-23T00:40:16.285Z,50.95
2018-05-23T00:43:18.796Z,51.29
2018-05-23T00:46:21.381Z,50.72
2018-05-23T00:49:23.946Z,52.35
2018-05-23T00:52:27.027Z,52.54
2018-05-23T00:55:34.331Z,53.19
2018-05-23T00:58:36.899Z,54.09
2018-05-23T01:01:39.437Z,53.44
2018-05-23T01:04:42.038Z,53.63
2018-05-23T01:07:44.675Z,54.27
2018-05-23T01:10:47.276Z,54.20
2018-05-23T01:13:50.821Z,54.47
2018-05-23T01:16:53.389Z,54.03
2018-05-23T01:19:55.919Z,54.67
2018-05-23T01:22:58.573Z,54.68
2018-05-23T01:26:01.174Z,55.28
2018-05-23T01:29:03.777Z,55.29
2018-05-23T01:32:06.411Z,54.44
2018-05-23T01:35:09.011Z,54.98
2018-05-23T01:38:11.574Z,54.55
2018-05-23T01:41:14.072Z,55.66
2018-05-23T01:44:16.753Z,56.15
2018-05-23T01:47:19.382Z,55.62
2018-05-23T01:50:21.911Z,56.15
2018-05-23T01:53:24.462Z,55.08
2018-05-23T01:56:26.968Z,55.72
2018-05-23T01:59:29.829Z,55.94
2018-05-23T02:02:32.364Z,56.04
2018-05-23T02:05:34.860Z,57.37
2018-05-23T02:08:37.384Z,56.35
2018-05-23T02:11:39.885Z,56.24
2018-05-23T02:14:42.427Z,56.76
2018-05-23T02:17:45.903Z,56.93
2018-05-23T02:20:48.527Z,57.05
2018-05-23T02:23:51.882Z,57.34
2018-05-23T02:26:54.428Z,57.62
2018-05-23T02:29:56.920Z,58.31
2018-05-23T02:32:59.475Z,57.89
2018-05-23T02:36:01.998Z,57.64
2018-05-23T02:39:04.524Z,57.39
2018-05-23T02:42:07.097Z,57.04
2018-05-23T02:45:09.648Z,57.08
2018-05-23T02:48:12.174Z,58.04
2018-05-23T02:51:14.665Z,58.08
2018-05-23T02:54:17.183Z,57.61
2018-05-23T02:57:19.675Z,57.37
2018-05-23T03:00:22.246Z,58.18
2018-05-23T03:03:24.766Z,57.99
2018-05-23T03:06:27.293Z,58.10
2018-05-23T03:09:29.898Z,58.46
2018-05-23T03:12:32.416Z,58.90
2018-05-23T03:15:34.931Z,59.52
2018-05-23T03:18:37.472Z,58.38
2018-05-23T03:21:40.143Z,57.82
2018-05-23T03:24:42.650Z,57.02
2018-05-23T03:27:45.155Z,57.03
2018-05-23T03:30:47.729Z,57.06
2018-05-23T03:33:50.246Z,57.67
2018-05-23T03:36:52.732Z,57.28
2018-05-23T03:39:55.259Z,57.27
2018-05-23T03:42:57.756Z,57.48
2018-05-23T03:46:00.263Z,57.57
2018-05-23T03:49:03.779Z,57.45
2018-05-23T03:52:06.318Z,57.54
2018-05-23T03:55:08.865Z,57.50
2018-05-23T03:58:11.574Z,57.69
2018-05-23T04:01:25.757Z,57.62
2018-05-23T04:04:40.097Z,57.48
2018-05-23T04:07:42.675Z,57.94
2018-05-23T04:10:45.173Z,58.23
2018-05-23T04:13:47.724Z,58.16
2018-05-23T04:16:50.231Z,58.79
2018-05-23T04:19:52.777Z,59.28
2018-05-23T04:22:55.259Z,58.80
2018-05-23T04:25:57.749Z,58.09
2018-05-23T04:29:00.246Z,58.18
2018-05-23T04:32:02.782Z,58.23
2018-05-23T04:35:05.359Z,57.82
2018-05-23T04:38:07.945Z,58.41
2018-05-23T04:41:10.494Z,58.50
2018-05-23T04:44:13.001Z,59.12
2018-05-23T04:47:15.503Z,58.65
2018-05-23T04:50:18.000Z,58.93
2018-05-23T04:53:20.522Z,58.53
2018-05-23T04:56:23.026Z,59.20
2018-05-23T04:59:25.547Z,59.41
2018-05-23T05:02:28.050Z,59.16
2018-05-23T05:05:30.578Z,58.90
2018-05-23T05:08:33.135Z,58.89
2018-05-23T05:11:35.744Z,59.07
2018-05-23T05:14:38.344Z,58.58
2018-05-23T05:17:40.958Z,58.89
2018-05-23T05:20:43.515Z,58.81
2018-05-23T05:23:46.083Z,59.02
2018-05-23T05:26:48.612Z,58.57
2018-05-23T05:29:51.106Z,58.63
2018-05-23T05:32:53.640Z,58.32
2018-05-23T05:35:56.167Z,58.68
2018-05-23T05:38:58.654Z,58.41
2018-05-23T05:42:01.154Z,58.17
2018-05-23T05:45:03.640Z,58.45
2018-05-23T05:48:06.169Z,58.06
2018-05-23T05:51:09.477Z,57.81
2018-05-23T05:54:11.959Z,57.52
2018-05-23T05:57:14.503Z,57.67
2018-05-23T06:00:17.087Z,57.32
2018-05-23T06:03:19.736Z,57.09
2018-05-23T06:06:22.267Z,57.22
2018-05-23T06:09:24.763Z,56.39
2018-05-23T06:12:27.327Z,56.76
2018-05-23T06:15:30.336Z,55.69
2018-05-23T06:18:33.738Z,55.79
2018-05-23T06:21:36.378Z,56.09
2018-05-23T06:28:00.506Z,55.90
2018-05-23T06:31:04.007Z,55.75
2018-05-23T06:34:07.510Z,55.63
2018-05-23T06:37:10.153Z,55.08
2018-05-23T06:40:12.834Z,53.86
2018-05-23T06:50:23.396Z,52.80
2018-05-23T06:53:25.959Z,52.81
2018-05-23T06:56:28.545Z,52.61
2018-05-23T06:59:31.068Z,51.39
2018-05-23T07:02:33.592Z,50.41
2018-05-23T07:05:36.179Z,49.66
2018-05-23T07:08:38.658Z,49.45
2018-05-23T07:11:41.391Z,48.08
2018-05-23T07:14:43.896Z,47.28
2018-05-23T07:17:46.959Z,47.88
2018-05-23T07:20:49.495Z,47.40
2018-05-23T07:23:52.009Z,46.93
2018-05-23T07:26:54.555Z,46.56
2018-05-23T07:29:57.137Z,46.32
2018-05-23T07:32:59.667Z,45.42
2018-05-23T07:36:02.179Z,44.88
2018-05-23T07:39:04.706Z,44.58
2018-05-23T07:42:07.253Z,44.26
2018-05-23T07:45:09.761Z,43.19
2018-05-23T07:48:13.039Z,42.70
2018-05-23T07:51:15.624Z,42.83
2018-05-23T07:54:18.156Z,42.64
2018-05-23T07:57:20.672Z,42.24
2018-05-23T08:00:23.272Z,41.72
2018-05-23T08:03:25.818Z,42.25
2018-05-23T08:09:37.147Z,41.89
2018-05-23T08:12:39.688Z,40.81
2018-05-23T08:15:42.220Z,41.03
2018-05-23T08:18:44.811Z,40.56
2018-05-23T08:21:47.480Z,40.48
2018-05-23T08:24:50.159Z,40.08
2018-05-23T08:27:52.684Z,40.24
2018-05-23T08:30:55.279Z,40.09
2018-05-23T08:33:57.803Z,39.50
2018-05-23T08:37:00.312Z,39.45
2018-05-23T08:40:02.865Z,39.08
2018-05-23T08:43:05.392Z,38.21
2018-05-23T08:46:07.990Z,38.28
2018-05-23T08:49:10.388Z,38.17
2018-05-23T08:52:12.936Z,38.17
2018-05-23T08:55:15.966Z,38.49
2018-05-23T08:58:18.500Z,37.83
2018-05-23T09:01:20.983Z,35.77
2018-05-23T09:04:23.470Z,36.17
2018-05-23T09:07:25.982Z,35.63
2018-05-23T09:10:28.473Z,36.08
2018-05-23T09:13:31.021Z,36.19
2018-05-23T09:16:33.508Z,36.63
2018-05-23T09:19:35.984Z,36.03
2018-05-23T09:22:38.499Z,34.65
2018-05-23T09:25:41.005Z,35.25
2018-05-23T09:28:43.536Z,35.18
2018-05-23T09:31:46.096Z,34.44
2018-05-23T09:34:48.662Z,34.54
2018-05-23T09:37:52.284Z,34.03
2018-05-23T09:40:54.811Z,33.50
2018-05-23T09:43:57.308Z,34.11
2018-05-23T09:46:59.826Z,33.22
2018-05-23T09:50:02.349Z,32.59
2018-05-23T09:53:04.870Z,31.95
2018-05-23T09:56:07.447Z,31.62
2018-05-23T09:59:10.001Z,32.41
2018-05-23T10:02:12.524Z,31.93
2018-05-23T10:05:15.894Z,30.77
2018-05-23T10:08:18.404Z,29.01
2018-05-23T10:11:20.970Z,30.39
2018-05-23T10:14:23.532Z,30.46
2018-05-23T10:17:26.122Z,31.10
2018-05-23T10:20:28.610Z,31.08
2018-05-23T10:23:31.109Z,30.56
2018-05-23T10:26:33.646Z,30.35
2018-05-23T10:29:36.741Z,30.21
2018-05-23T10:32:39.282Z,30.58
2018-05-23T10:35:41.855Z,28.05
2018-05-23T10:38:44.383Z,28.75
2018-05-23T10:41:46.928Z,29.16
2018-05-23T10:44:49.462Z,29.51
2018-05-23T10:47:52.012Z,28.64
2018-05-23T10:50:54.510Z,29.44
2018-05-23T10:53:57.041Z,29.07
2018-05-23T10:56:59.561Z,28.87
2018-05-23T11:00:02.168Z,30.40
2018-05-23T11:03:04.605Z,29.01
2018-05-23T11:06:07.124Z,27.68
2018-05-23T11:09:09.669Z,28.62
2018-05-23T11:12:12.220Z,28.12
2018-05-23T11:15:15.553Z,28.04
2018-05-23T11:18:18.706Z,27.79
2018-05-23T11:21:21.308Z,27.91
2018-05-23T11:24:23.898Z,27.91
2018-05-23T11:27:26.444Z,27.87
2018-05-23T11:30:28.981Z,27.42
2018-05-23T11:33:31.554Z,27.36
2018-05-23T11:36:34.148Z,27.50
2018-05-23T11:39:36.777Z,27.83
2018-05-23T11:42:39.504Z,27.56
2018-05-23T11:45:42.087Z,28.82
2018-05-23T11:48:44.695Z,27.30
2018-05-23T11:51:47.235Z,27.31
2018-05-23T11:54:49.768Z,26.80
2018-05-23T11:57:52.387Z,26.77
2018-05-23T12:00:54.910Z,26.96
2018-05-23T12:03:57.472Z,26.09
2018-05-23T12:07:00.133Z,26.85
2018-05-23T12:10:02.691Z,26.62
2018-05-23T12:13:05.283Z,26.15
2018-05-23T12:16:07.816Z,26.31
2018-05-23T12:19:10.369Z,26.02
2018-05-23T12:22:12.921Z,27.00
2018-05-23T12:25:15.524Z,26.02
2018-05-23T12:28:18.053Z,25.49
2018-05-23T12:31:20.599Z,25.74
2018-05-23T12:34:23.144Z,25.32
2018-05-23T12:37:25.677Z,25.82
2018-05-23T12:40:28.172Z,26.47
2018-05-23T12:43:30.711Z,25.92
2018-05-23T12:46:33.251Z,25.76
2018-05-23T12:49:35.876Z,25.50
2018-05-23T12:52:38.433Z,25.29
2018-05-23T12:55:40.941Z,29.39
2018-05-23T12:58:43.465Z,26.47
2018-05-23T13:01:45.969Z,26.98
2018-05-23T13:04:48.510Z,25.58
2018-05-23T13:07:51.048Z,27.42
2018-05-23T13:10:53.582Z,26.97
2018-05-23T13:13:56.149Z,26.49
2018-05-23T13:16:58.661Z,26.12
2018-05-23T13:20:01.150Z,25.78
2018-05-23T13:23:03.714Z,25.18
2018-05-23T13:26:06.230Z,25.85
2018-05-23T13:29:08.778Z,25.92
2018-05-23T13:32:11.313Z,26.03
2018-05-23T13:35:15.617Z,26.20
2018-05-23T13:38:18.112Z,26.34
2018-05-23T13:41:20.612Z,26.76
2018-05-23T13:44:25.982Z,26.58
2018-05-23T13:47:28.542Z,26.45
2018-05-23T13:50:31.196Z,28.18
2018-05-23T13:53:33.683Z,27.56
2018-05-23T13:56:36.204Z,26.97
2018-05-23T13:59:38.731Z,27.34
2018-05-23T14:02:41.411Z,27.79
2018-05-23T14:05:43.955Z,26.99
2018-05-23T14:08:46.683Z,27.08
2018-05-23T14:11:49.214Z,27.38
2018-05-23T14:14:51.736Z,27.40
2018-05-23T14:17:54.272Z,27.49
2018-05-23T14:20:56.797Z,27.42
2018-05-23T14:23:59.333Z,26.79
2018-05-23T14:27:01.863Z,27.08
2018-05-23T14:30:04.361Z,27.12
2018-05-23T14:33:07.588Z,27.17
2018-05-23T14:36:11.574Z,27.39
2018-05-23T14:39:14.273Z,27.39
2018-05-23T14:42:16.803Z,27.52
2018-05-23T14:45:19.322Z,27.36
2018-05-23T14:48:21.849Z,27.31
2018-05-23T14:51:25.481Z,27.63
2018-05-23T14:54:28.037Z,26.99
2018-05-23T14:57:30.572Z,26.72
2018-05-23T15:00:33.240Z,26.74
2018-05-23T15:03:35.775Z,26.73
2018-05-23T15:06:46.023Z,26.71
2018-05-23T15:09:56.680Z,26.33
2018-05-23T15:12:59.308Z,26.46
2018-05-23T15:16:02.011Z,26.70
2018-05-23T15:19:04.677Z,26.59
2018-05-23T15:22:07.379Z,26.17
2018-05-23T15:28:20.380Z,26.21
2018-05-23T15:31:23.111Z,27.71
2018-05-23T15:34:25.673Z,27.05
2018-05-23T15:37:28.252Z,26.16
2018-05-23T15:40:30.814Z,27.45
2018-05-23T15:43:33.457Z,27.15
2018-05-23T15:46:36.130Z,27.80
2018-05-23T15:49:39.235Z,27.19
2018-05-23T15:52:41.807Z,28.28
2018-05-23T15:55:44.417Z,27.80
2018-05-23T15:58:46.981Z,29.15
2018-05-23T16:01:49.539Z,27.94
2018-05-23T16:04:52.179Z,27.80
2018-05-23T16:07:54.788Z,28.03
2018-05-23T16:10:57.578Z,28.26
2018-05-23T16:14:03.895Z,28.40
2018-05-23T16:17:06.887Z,28.51
2018-05-23T16:20:09.610Z,28.74
2018-05-23T16:23:12.172Z,29.53
2018-05-23T16:26:16.188Z,29.24
2018-05-23T16:29:22.377Z,29.07
2018-05-23T16:32:28.656Z,29.50
2018-05-23T16:35:35.472Z,29.44
2018-05-23T16:38:45.185Z,30.13
2018-05-23T16:41:49.073Z,29.60
2018-05-23T16:44:57.268Z,30.14
2018-05-23T16:48:03.961Z,29.96
2018-05-23T16:51:10.843Z,30.37
2018-05-23T16:54:19.990Z,30.12
2018-05-23T16:57:27.667Z,30.18
2018-05-23T17:00:35.663Z,30.36
2018-05-23T17:03:44.794Z,30.34
2018-05-23T17:06:54.554Z,30.48
2018-05-23T17:09:59.710Z,29.87
2018-05-23T17:13:03.301Z,30.14
2018-05-23T17:16:06.787Z,29.97
2018-05-23T17:19:14.676Z,29.91
2018-05-23T17:22:18.777Z,30.45
2018-05-23T17:25:29.468Z,30.91
2018-05-23T17:28:39.837Z,30.28
2018-05-23T17:31:52.013Z,30.24
2018-05-23T17:35:01.776Z,30.18
2018-05-23T17:38:06.259Z,30.26
2018-05-23T17:41:09.095Z,30.72
2018-05-23T17:44:17.103Z,31.73
2018-05-23T17:47:21.296Z,32.08
2018-05-23T17:50:27.281Z,32.77
2018-05-23T17:53:30.721Z,32.30
2018-05-23T17:56:33.487Z,32.02
2018-05-23T17:59:37.038Z,32.61
2018-05-23T18:02:45.839Z,32.49
2018-05-23T18:05:58.238Z,33.26
2018-05-23T18:09:01.410Z,32.33
2018-05-23T18:12:09.764Z,33.50
2018-05-23T18:15:17.900Z,34.10
2018-05-23T18:18:28.362Z,33.07
2018-05-23T18:21:40.178Z,32.90
2018-05-23T18:24:53.485Z,33.05
2018-05-23T18:27:58.840Z,33.01
2018-05-23T18:31:01.836Z,34.16
2018-05-23T18:34:04.708Z,33.50
2018-05-23T18:37:07.504Z,34.24
2018-05-23T18:40:10.279Z,33.70
2018-05-23T18:43:14.658Z,33.56
2018-05-23T18:49:58.867Z,34.34
2018-05-23T18:53:15.054Z,34.04
2018-05-23T18:56:32.941Z,34.37
2018-05-23T18:59:41.851Z,34.96
2018-05-23T19:02:49.039Z,34.61
2018-05-23T19:06:16.952Z,34.74
2018-05-23T19:09:24.045Z,35.33
2018-05-23T19:12:27.920Z,36.16
2018-05-23T19:15:49.435Z,37.05
2018-05-23T19:18:52.206Z,36.88
2018-05-23T19:21:54.946Z,37.03
2018-05-23T19:24:59.388Z,37.55
2018-05-23T19:28:04.751Z,39.01
2018-05-23T19:31:08.627Z,39.77
2018-05-23T19:34:16.571Z,40.24
2018-05-23T19:37:22.107Z,40.79
2018-05-23T19:40:29.296Z,42.08
2018-05-23T19:44:27.606Z,42.11
2018-05-23T20:23:35.004Z,45.28
2018-05-23T20:26:37.672Z,45.33
2018-05-23T20:29:40.300Z,45.54
2018-05-23T20:32:42.948Z,45.32
2018-05-23T20:35:45.757Z,45.80
2018-05-23T20:38:49.477Z,46.13
2018-05-23T20:41:52.049Z,46.25
2018-05-23T20:44:54.676Z,46.10
2018-05-23T20:47:57.384Z,46.52
2018-05-23T20:51:00.074Z,46.60
2018-05-23T20:54:02.694Z,47.16
2018-05-23T20:57:05.436Z,47.96
2018-05-23T21:00:09.220Z,47.51
2018-05-23T21:03:16.650Z,47.58
2018-05-23T21:06:20.818Z,47.61
2018-05-23T21:09:23.445Z,47.67
2018-05-23T21:12:26.095Z,47.48
2018-05-23T21:15:28.641Z,47.63
2018-05-23T21:18:31.185Z,48.47
2018-05-23T21:21:33.816Z,48.49
2018-05-23T21:24:38.664Z,48.15
2018-05-23T21:27:43.013Z,48.25
2018-05-23T21:30:45.605Z,48.52
2018-05-23T21:36:56.880Z,48.70
2018-05-23T21:40:00.768Z,48.65
2018-05-23T21:43:03.405Z,48.72
2018-05-23T21:46:07.308Z,48.67
2018-05-23T21:49:09.889Z,49.19
2018-05-23T21:52:12.491Z,48.85
2018-05-23T21:55:15.310Z,49.39
2018-05-23T21:58:18.284Z,48.66
2018-05-23T22:01:20.850Z,49.02
2018-05-23T22:04:23.384Z,48.95
2018-05-23T22:07:26.530Z,49.04
2018-05-23T22:10:29.112Z,49.87
2018-05-23T22:13:31.767Z,49.38
2018-05-23T22:16:35.459Z,49.55
2018-05-23T22:19:38.827Z,50.11
2018-05-23T22:22:41.556Z,51.01
2018-05-23T22:25:44.635Z,50.88
2018-05-23T22:28:47.290Z,50.75
2018-05-23T22:31:49.873Z,50.44
2018-05-23T22:34:52.387Z,50.78
2018-05-23T22:37:55.242Z,51.23
2018-05-23T22:40:58.423Z,51.61
2018-05-23T22:44:01.016Z,51.25
2018-05-23T22:47:04.825Z,51.77
2018-05-23T22:50:14.347Z,50.32
2018-05-23T22:53:18.360Z,50.67
2018-05-23T22:56:21.072Z,50.07
2018-05-23T22:59:24.634Z,51.04
2018-05-23T23:02:27.352Z,50.82
2018-05-23T23:05:29.915Z,50.19
2018-05-23T23:08:48.037Z,50.55
2018-05-23T23:11:51.717Z,51.05
2018-05-23T23:14:54.262Z,50.52
2018-05-23T23:17:56.880Z,51.28
2018-05-23T23:20:59.689Z,51.38
2018-05-23T23:24:02.287Z,52.04
2018-05-23T23:27:05.938Z,51.70
2018-05-23T23:30:08.496Z,51.95
2018-05-23T23:33:11.121Z,51.74
2018-05-23T23:36:13.699Z,51.50
2018-05-23T23:39:16.226Z,51.87
2018-05-23T23:42:18.816Z,52.43
2018-05-23T23:45:21.441Z,51.25
2018-05-23T23:48:25.907Z,51.73
2018-05-23T23:51:31.470Z,52.18
2018-05-23T23:54:34.258Z,51.69
2018-05-23T23:57:36.840Z,51.77
